Airfield :
LOGIN :

Register | Disclaimer

   EN    FR    IT 

 










Legend :    VFR   Marginal VFR   IFR   Intensive IFR   Very Intensive IFR
Visi :
Ceiling :
>= 8 km
>= 3000ft
5 to 8 km
1000 to 3000 ft
1500m to 5 km
500 to 1000 ft
800 to 1500m
200 to 500 ft
< 800m
< 200 ft
Symbols :   Thunderstorms  Fog  Heavy snow  Heavy precipitations  Wind > 20 kt
SIGMETs :     Misc.  Thunderstorms  Icing  Turbulence  Mountain Waves  Volcanic Ashes







- Airport Elevation : 138 ft
- IATA code : BIO


LEBB - Bilbao

CURRENT METAR :
  • 220900Z 20009KT 150V260 CAVOK 17/01 Q1012 NOSIG

EXPIRED METARs :
  • 220830Z VRB04KT CAVOK 17/01 Q1012 NOSIG
  • 220800Z 17007KT 110V250 CAVOK 16/01 Q1012 NOSIG
  • 220730Z 21009KT 140V270 CAVOK 16/01 Q1012 WS ALL RWY NOSIG
  • 220700Z VRB07G21KT CAVOK 15/M00 Q1012 NOSIG
  • 220630Z 19007KT 100V250 CAVOK 15/M00 Q1012 NOSIG

TAF TAF LEBB
Valid from the 22 at 06:00 until the 23 at 06:00 UTC


220500Z 2206/2306 18012KT CAVOK TX21/2214Z TN11/2206Z
TEMPO 2206/2306 18015G27KT
PROB40
TEMPO 2221/2306 22020G35KT
No reported NOTAMs for that airfield.
2 SIGMETs reported for the Madrid FIR (LECM) :
 
Embedded thunderstorms
LECM SIGMET 4 VALID 220800/221000 LEVA
LECM MADRID FIR/UIR EMBD TS OBS AT 0758Z W OF LINE N4450 W00830 - N42 W01020 TOP FL380 MOV E 20 KT NC=
Severe turbulence
LECM SIGMET 2 VALID 220610/221000 LEVA
LECM MADRID FIR SEV TURB FCST W OF W011 SFC/FL060 STNR NC=



MET'MAP, your aeronautical weather chart ! - Copyright ORBIFLY December 2007 - Disclaimer

ORBIFLY MET'MAP TEAM :

Programming & Development : Alexandra Zaïnal
Concept & Development : Baudouin d'Aumeries
Co-Development & Prog : Marc-Olivier Méhu
Technical & hardware support : Manuel Goepfert

Contact : metmap@orbifly.com




SOURCES & CREDITS :

   NOAA